sensor_id;sensor_type;location;lat;lon;timestamp;P1;durP1;ratioP1;P2;durP2;ratioP2
4616;SDS011;2321;42.704;23.384;2023-07-31T00:01:01;106.73;;;44.73;;
4616;SDS011;2321;42.704;23.384;2023-07-31T00:03:28;87.03;;;40.10;;
4616;SDS011;2321;42.704;23.384;2023-07-31T00:05:55;91.03;;;40.60;;
4616;SDS011;2321;42.704;23.384;2023-07-31T00:08:22;117.93;;;47.43;;
4616;SDS011;2321;42.704;23.384;2023-07-31T00:10:51;86.83;;;40.17;;
4616;SDS011;2321;42.704;23.384;2023-07-31T00:13:18;80.17;;;39.47;;
4616;SDS011;2321;42.704;23.384;2023-07-31T00:15:46;89.53;;;41.40;;
4616;SDS011;2321;42.704;23.384;2023-07-31T00:18:13;98.43;;;44.07;;
4616;SDS011;2321;42.704;23.384;2023-07-31T00:20:41;105.50;;;45.07;;
4616;SDS011;2321;42.704;23.384;2023-07-31T00:23:08;91.73;;;41.60;;
4616;SDS011;2321;42.704;23.384;2023-07-31T00:25:35;99.43;;;44.00;;
4616;SDS011;2321;42.704;23.384;2023-07-31T00:28:01;108.13;;;45.87;;
4616;SDS011;2321;42.704;23.384;2023-07-31T00:30:28;80.50;;;38.60;;
4616;SDS011;2321;42.704;23.384;2023-07-31T00:32:56;87.53;;;40.60;;
4616;SDS011;2321;42.704;23.384;2023-07-31T00:35:23;94.97;;;42.93;;
4616;SDS011;2321;42.704;23.384;2023-07-31T00:37:50;108.63;;;46.23;;
4616;SDS011;2321;42.704;23.384;2023-07-31T00:40:17;98.93;;;43.97;;
4616;SDS011;2321;42.704;23.384;2023-07-31T00:42:44;93.43;;;43.50;;
4616;SDS011;2321;42.704;23.384;2023-07-31T00:45:11;93.40;;;41.90;;
4616;SDS011;2321;42.704;23.384;2023-07-31T00:47:38;74.93;;;37.10;;
4616;SDS011;2321;42.704;23.384;2023-07-31T00:50:07;68.60;;;36.63;;
4616;SDS011;2321;42.704;23.384;2023-07-31T00:52:35;83.83;;;39.50;;
4616;SDS011;2321;42.704;23.384;2023-07-31T00:55:02;75.17;;;38.83;;
4616;SDS011;2321;42.704;23.384;2023-07-31T00:57:29;66.50;;;36.20;;
4616;SDS011;2321;42.704;23.384;2023-07-31T00:59:58;71.17;;;36.90;;
4616;SDS011;2321;42.704;23.384;2023-07-31T01:02:25;98.73;;;42.43;;
4616;SDS011;2321;42.704;23.384;2023-07-31T01:04:52;84.77;;;40.57;;
4616;SDS011;2321;42.704;23.384;2023-07-31T01:07:21;130.67;;;48.23;;
4616;SDS011;2321;42.704;23.384;2023-07-31T01:09:56;105.67;;;45.33;;
4616;SDS011;2321;42.704;23.384;2023-07-31T01:12:29;153.43;;;53.43;;
4616;SDS011;2321;42.704;23.384;2023-07-31T01:15:07;150.23;;;51.97;;
4616;SDS011;2321;42.704;23.384;2023-07-31T01:17:36;135.30;;;49.13;;
4616;SDS011;2321;42.704;23.384;2023-07-31T01:20:03;121.10;;;46.90;;
4616;SDS011;2321;42.704;23.384;2023-07-31T01:22:44;124.43;;;46.37;;
4616;SDS011;2321;42.704;23.384;2023-07-31T01:25:31;60.20;;;33.73;;
4616;SDS011;2321;42.704;23.384;2023-07-31T01:28:13;54.73;;;33.17;;
4616;SDS011;2321;42.704;23.384;2023-07-31T01:30:44;59.07;;;33.90;;
4616;SDS011;2321;42.704;23.384;2023-07-31T01:33:14;123.40;;;46.90;;
4616;SDS011;2321;42.704;23.384;2023-07-31T01:35:43;115.30;;;46.13;;
4616;SDS011;2321;42.704;23.384;2023-07-31T01:38:11;130.77;;;48.77;;
4616;SDS011;2321;42.704;23.384;2023-07-31T01:40:40;128.20;;;47.13;;
4616;SDS011;2321;42.704;23.384;2023-07-31T01:43:09;137.43;;;49.77;;
4616;SDS011;2321;42.704;23.384;2023-07-31T01:45:36;126.13;;;47.23;;
4616;SDS011;2321;42.704;23.384;2023-07-31T01:48:03;134.00;;;47.90;;
4616;SDS011;2321;42.704;23.384;2023-07-31T01:50:30;161.83;;;54.60;;
4616;SDS011;2321;42.704;23.384;2023-07-31T01:52:57;154.73;;;53.40;;
4616;SDS011;2321;42.704;23.384;2023-07-31T01:55:23;147.87;;;52.37;;
4616;SDS011;2321;42.704;23.384;2023-07-31T01:57:51;174.20;;;55.80;;
4616;SDS011;2321;42.704;23.384;2023-07-31T02:00:19;156.47;;;51.20;;
4616;SDS011;2321;42.704;23.384;2023-07-31T02:02:46;146.10;;;50.00;;
4616;SDS011;2321;42.704;23.384;2023-07-31T02:05:13;139.87;;;49.53;;
4616;SDS011;2321;42.704;23.384;2023-07-31T02:07:40;138.10;;;49.30;;
4616;SDS011;2321;42.704;23.384;2023-07-31T02:10:07;143.03;;;50.40;;
4616;SDS011;2321;42.704;23.384;2023-07-31T02:12:34;199.30;;;59.70;;
4616;SDS011;2321;42.704;23.384;2023-07-31T02:15:01;211.37;;;59.80;;
4616;SDS011;2321;42.704;23.384;2023-07-31T02:17:29;230.47;;;65.67;;
4616;SDS011;2321;42.704;23.384;2023-07-31T02:19:56;125.17;;;48.97;;
4616;SDS011;2321;42.704;23.384;2023-07-31T02:22:23;120.77;;;46.17;;
4616;SDS011;2321;42.704;23.384;2023-07-31T02:24:49;118.43;;;45.73;;
4616;SDS011;2321;42.704;23.384;2023-07-31T02:27:16;164.50;;;55.23;;
4616;SDS011;2321;42.704;23.384;2023-07-31T02:29:43;129.77;;;47.53;;
4616;SDS011;2321;42.704;23.384;2023-07-31T02:32:10;121.90;;;46.63;;
4616;SDS011;2321;42.704;23.384;2023-07-31T02:34:38;120.20;;;47.00;;
4616;SDS011;2321;42.704;23.384;2023-07-31T02:37:05;192.57;;;56.77;;
4616;SDS011;2321;42.704;23.384;2023-07-31T02:39:32;174.33;;;52.93;;
4616;SDS011;2321;42.704;23.384;2023-07-31T02:41:59;153.07;;;51.47;;
4616;SDS011;2321;42.704;23.384;2023-07-31T02:44:26;137.57;;;49.70;;
4616;SDS011;2321;42.704;23.384;2023-07-31T02:46:53;112.30;;;45.87;;
4616;SDS011;2321;42.704;23.384;2023-07-31T02:49:20;103.73;;;44.87;;
4616;SDS011;2321;42.704;23.384;2023-07-31T02:51:48;91.40;;;41.67;;
4616;SDS011;2321;42.704;23.384;2023-07-31T02:54:15;103.40;;;45.60;;
4616;SDS011;2321;42.704;23.384;2023-07-31T02:56:42;95.53;;;42.70;;
4616;SDS011;2321;42.704;23.384;2023-07-31T02:59:09;73.27;;;37.63;;
4616;SDS011;2321;42.704;23.384;2023-07-31T03:01:35;73.30;;;38.20;;
4616;SDS011;2321;42.704;23.384;2023-07-31T03:04:03;69.63;;;38.23;;
4616;SDS011;2321;42.704;23.384;2023-07-31T03:06:30;79.93;;;40.40;;
4616;SDS011;2321;42.704;23.384;2023-07-31T03:08:58;66.70;;;36.40;;
4616;SDS011;2321;42.704;23.384;2023-07-31T03:11:25;74.63;;;39.13;;
4616;SDS011;2321;42.704;23.384;2023-07-31T03:13:52;56.13;;;33.50;;
4616;SDS011;2321;42.704;23.384;2023-07-31T03:16:19;48.07;;;30.53;;
4616;SDS011;2321;42.704;23.384;2023-07-31T03:18:46;69.43;;;37.17;;
4616;SDS011;2321;42.704;23.384;2023-07-31T03:21:13;86.87;;;41.73;;
4616;SDS011;2321;42.704;23.384;2023-07-31T03:23:40;74.67;;;38.50;;
4616;SDS011;2321;42.704;23.384;2023-07-31T03:26:10;65.27;;;36.23;;
4616;SDS011;2321;42.704;23.384;2023-07-31T03:28:36;78.03;;;40.63;;
4616;SDS011;2321;42.704;23.384;2023-07-31T03:31:03;74.70;;;38.33;;
4616;SDS011;2321;42.704;23.384;2023-07-31T03:33:30;94.33;;;42.97;;
4616;SDS011;2321;42.704;23.384;2023-07-31T03:35:57;98.20;;;44.67;;
4616;SDS011;2321;42.704;23.384;2023-07-31T03:38:24;83.03;;;39.97;;
4616;SDS011;2321;42.704;23.384;2023-07-31T03:40:51;86.03;;;40.77;;
4616;SDS011;2321;42.704;23.384;2023-07-31T03:43:19;84.50;;;39.73;;
4616;SDS011;2321;42.704;23.384;2023-07-31T03:45:46;83.00;;;39.77;;
4616;SDS011;2321;42.704;23.384;2023-07-31T03:48:13;80.70;;;39.43;;
4616;SDS011;2321;42.704;23.384;2023-07-31T03:50:40;77.27;;;38.67;;
4616;SDS011;2321;42.704;23.384;2023-07-31T03:53:07;76.20;;;38.70;;
4616;SDS011;2321;42.704;23.384;2023-07-31T03:55:34;75.77;;;38.50;;
4616;SDS011;2321;42.704;23.384;2023-07-31T03:58:01;72.40;;;37.77;;
4616;SDS011;2321;42.704;23.384;2023-07-31T04:00:29;78.77;;;39.07;;
4616;SDS011;2321;42.704;23.384;2023-07-31T04:02:56;78.83;;;38.97;;
4616;SDS011;2321;42.704;23.384;2023-07-31T04:05:23;87.57;;;40.63;;
4616;SDS011;2321;42.704;23.384;2023-07-31T04:07:50;94.90;;;42.00;;
4616;SDS011;2321;42.704;23.384;2023-07-31T04:10:17;106.53;;;44.30;;
4616;SDS011;2321;42.704;23.384;2023-07-31T04:12:43;110.27;;;44.43;;
4616;SDS011;2321;42.704;23.384;2023-07-31T04:15:10;123.47;;;47.93;;
4616;SDS011;2321;42.704;23.384;2023-07-31T04:17:38;146.00;;;49.43;;
4616;SDS011;2321;42.704;23.384;2023-07-31T04:20:06;191.13;;;55.27;;
4616;SDS011;2321;42.704;23.384;2023-07-31T04:22:33;217.03;;;51.03;;
4616;SDS011;2321;42.704;23.384;2023-07-31T04:25:00;93.07;;;19.70;;
4616;SDS011;2321;42.704;23.384;2023-07-31T04:27:27;207.07;;;42.43;;
4616;SDS011;2321;42.704;23.384;2023-07-31T04:29:53;9.60;;;8.20;;
4616;SDS011;2321;42.704;23.384;2023-07-31T04:32:20;11.37;;;10.43;;
4616;SDS011;2321;42.704;23.384;2023-07-31T04:34:48;14.80;;;12.07;;
4616;SDS011;2321;42.704;23.384;2023-07-31T04:37:15;15.33;;;13.83;;
4616;SDS011;2321;42.704;23.384;2023-07-31T04:39:42;233.10;;;66.83;;
4616;SDS011;2321;42.704;23.384;2023-07-31T04:42:09;708.63;;;231.37;;
4616;SDS011;2321;42.704;23.384;2023-07-31T04:44:36;702.90;;;214.80;;
4616;SDS011;2321;42.704;23.384;2023-07-31T04:47:03;649.73;;;200.43;;
4616;SDS011;2321;42.704;23.384;2023-07-31T04:49:30;232.37;;;64.53;;
4616;SDS011;2321;42.704;23.384;2023-07-31T04:51:58;250.30;;;79.53;;
4616;SDS011;2321;42.704;23.384;2023-07-31T04:54:25;660.67;;;186.30;;
4616;SDS011;2321;42.704;23.384;2023-07-31T04:56:51;529.73;;;152.40;;
4616;SDS011;2321;42.704;23.384;2023-07-31T04:59:18;230.57;;;67.73;;
4616;SDS011;2321;42.704;23.384;2023-07-31T05:01:45;236.73;;;66.97;;
4616;SDS011;2321;42.704;23.384;2023-07-31T05:04:12;233.37;;;77.53;;
4616;SDS011;2321;42.704;23.384;2023-07-31T05:06:40;669.93;;;207.27;;
4616;SDS011;2321;42.704;23.384;2023-07-31T05:09:08;673.30;;;206.90;;
4616;SDS011;2321;42.704;23.384;2023-07-31T05:11:35;40.30;;;32.20;;
4616;SDS011;2321;42.704;23.384;2023-07-31T05:14:02;28.13;;;22.37;;
4616;SDS011;2321;42.704;23.384;2023-07-31T05:16:29;232.43;;;62.93;;
4616;SDS011;2321;42.704;23.384;2023-07-31T05:18:56;255.00;;;84.10;;
4616;SDS011;2321;42.704;23.384;2023-07-31T05:21:23;200.57;;;65.33;;
4616;SDS011;2321;42.704;23.384;2023-07-31T05:23:50;526.53;;;157.07;;
4616;SDS011;2321;42.704;23.384;2023-07-31T05:26:18;28.97;;;16.67;;
4616;SDS011;2321;42.704;23.384;2023-07-31T05:28:45;15.90;;;12.43;;
4616;SDS011;2321;42.704;23.384;2023-07-31T05:31:12;29.50;;;12.57;;
4616;SDS011;2321;42.704;23.384;2023-07-31T05:33:38;23.03;;;13.23;;
4616;SDS011;2321;42.704;23.384;2023-07-31T05:36:05;229.53;;;64.80;;
4616;SDS011;2321;42.704;23.384;2023-07-31T05:38:32;203.07;;;61.97;;
4616;SDS011;2321;42.704;23.384;2023-07-31T05:40:59;517.60;;;138.97;;
4616;SDS011;2321;42.704;23.384;2023-07-31T05:43:27;230.70;;;63.93;;
4616;SDS011;2321;42.704;23.384;2023-07-31T05:45:54;243.10;;;76.50;;
4616;SDS011;2321;42.704;23.384;2023-07-31T05:48:21;575.50;;;157.40;;
4616;SDS011;2321;42.704;23.384;2023-07-31T05:50:48;11.70;;;9.07;;
4616;SDS011;2321;42.704;23.384;2023-07-31T05:53:14;17.73;;;10.87;;
4616;SDS011;2321;42.704;23.384;2023-07-31T05:55:41;206.00;;;64.60;;
4616;SDS011;2321;42.704;23.384;2023-07-31T05:58:08;26.13;;;13.70;;
4616;SDS011;2321;42.704;23.384;2023-07-31T06:00:36;237.43;;;71.13;;
4616;SDS011;2321;42.704;23.384;2023-07-31T06:03:03;208.63;;;60.97;;
4616;SDS011;2321;42.704;23.384;2023-07-31T06:05:29;228.03;;;68.53;;
4616;SDS011;2321;42.704;23.384;2023-07-31T06:07:56;18.30;;;8.63;;
4616;SDS011;2321;42.704;23.384;2023-07-31T06:10:23;212.03;;;60.63;;
4616;SDS011;2321;42.704;23.384;2023-07-31T06:12:50;232.80;;;71.83;;
4616;SDS011;2321;42.704;23.384;2023-07-31T06:15:17;634.00;;;188.77;;
4616;SDS011;2321;42.704;23.384;2023-07-31T06:17:45;258.30;;;83.63;;
4616;SDS011;2321;42.704;23.384;2023-07-31T06:20:13;700.17;;;216.87;;
4616;SDS011;2321;42.704;23.384;2023-07-31T06:22:39;245.63;;;73.60;;
4616;SDS011;2321;42.704;23.384;2023-07-31T06:25:06;609.50;;;187.87;;
4616;SDS011;2321;42.704;23.384;2023-07-31T06:27:34;16.00;;;12.63;;
4616;SDS011;2321;42.704;23.384;2023-07-31T06:30:00;12.80;;;7.70;;
4616;SDS011;2321;42.704;23.384;2023-07-31T06:32:27;14.40;;;7.87;;
4616;SDS011;2321;42.704;23.384;2023-07-31T06:34:55;18.77;;;14.63;;
4616;SDS011;2321;42.704;23.384;2023-07-31T06:37:22;217.03;;;67.73;;
4616;SDS011;2321;42.704;23.384;2023-07-31T06:39:49;480.37;;;153.97;;
4616;SDS011;2321;42.704;23.384;2023-07-31T06:42:16;27.30;;;15.40;;
4616;SDS011;2321;42.704;23.384;2023-07-31T06:44:43;247.07;;;83.50;;
4616;SDS011;2321;42.704;23.384;2023-07-31T06:47:09;289.37;;;112.87;;
4616;SDS011;2321;42.704;23.384;2023-07-31T06:49:36;558.10;;;182.47;;
4616;SDS011;2321;42.704;23.384;2023-07-31T06:52:05;645.77;;;211.50;;
4616;SDS011;2321;42.704;23.384;2023-07-31T06:54:32;94.37;;;80.00;;
4616;SDS011;2321;42.704;23.384;2023-07-31T06:56:59;765.43;;;331.20;;
4616;SDS011;2321;42.704;23.384;2023-07-31T06:59:26;793.93;;;353.13;;
4616;SDS011;2321;42.704;23.384;2023-07-31T07:01:53;769.13;;;304.13;;
4616;SDS011;2321;42.704;23.384;2023-07-31T07:04:20;769.53;;;305.20;;
4616;SDS011;2321;42.704;23.384;2023-07-31T07:06:47;965.20;;;551.87;;
4616;SDS011;2321;42.704;23.384;2023-07-31T07:09:15;1246.83;;;800.87;;
4616;SDS011;2321;42.704;23.384;2023-07-31T07:11:42;1003.07;;;586.57;;
4616;SDS011;2321;42.704;23.384;2023-07-31T07:14:09;1101.43;;;716.87;;
4616;SDS011;2321;42.704;23.384;2023-07-31T07:16:36;1214.33;;;882.50;;
4616;SDS011;2321;42.704;23.384;2023-07-31T07:19:03;1274.40;;;990.07;;
4616;SDS011;2321;42.704;23.384;2023-07-31T07:21:29;1275.27;;;999.90;;
4616;SDS011;2321;42.704;23.384;2023-07-31T07:23:56;1227.07;;;999.90;;
4616;SDS011;2321;42.704;23.384;2023-07-31T07:26:24;1205.47;;;997.53;;
4616;SDS011;2321;42.704;23.384;2023-07-31T07:28:51;1240.43;;;999.90;;
4616;SDS011;2321;42.704;23.384;2023-07-31T07:31:20;1179.53;;;925.60;;
4616;SDS011;2321;42.704;23.384;2023-07-31T07:33:47;1186.47;;;920.47;;
4616;SDS011;2321;42.704;23.384;2023-07-31T07:39:05;1222.63;;;999.90;;
4616;SDS011;2321;42.704;23.384;2023-07-31T07:41:35;1156.57;;;922.07;;
4616;SDS011;2321;42.704;23.384;2023-07-31T07:44:12;1193.53;;;995.17;;
4616;SDS011;2321;42.704;23.384;2023-07-31T07:46:44;1205.77;;;999.90;;
4616;SDS011;2321;42.704;23.384;2023-07-31T07:49:15;1218.53;;;999.90;;
4616;SDS011;2321;42.704;23.384;2023-07-31T07:51:42;1202.47;;;994.30;;
4616;SDS011;2321;42.704;23.384;2023-07-31T07:54:09;1203.37;;;996.20;;
4616;SDS011;2321;42.704;23.384;2023-07-31T07:56:37;1210.83;;;999.90;;
4616;SDS011;2321;42.704;23.384;2023-07-31T07:59:06;1211.63;;;999.90;;
4616;SDS011;2321;42.704;23.384;2023-07-31T08:01:33;1224.53;;;999.90;;
4616;SDS011;2321;42.704;23.384;2023-07-31T08:04:00;1207.87;;;999.90;;
4616;SDS011;2321;42.704;23.384;2023-07-31T08:06:27;1225.13;;;999.90;;
4616;SDS011;2321;42.704;23.384;2023-07-31T08:08:54;1224.97;;;999.90;;
4616;SDS011;2321;42.704;23.384;2023-07-31T08:11:21;1208.97;;;999.90;;
4616;SDS011;2321;42.704;23.384;2023-07-31T08:13:50;1222.23;;;999.90;;
4616;SDS011;2321;42.704;23.384;2023-07-31T08:16:16;1221.80;;;999.90;;
4616;SDS011;2321;42.704;23.384;2023-07-31T08:18:43;1240.87;;;999.90;;
4616;SDS011;2321;42.704;23.384;2023-07-31T08:21:10;1231.23;;;999.90;;
4616;SDS011;2321;42.704;23.384;2023-07-31T08:23:37;1203.37;;;999.90;;
4616;SDS011;2321;42.704;23.384;2023-07-31T08:26:04;1244.07;;;999.90;;
4616;SDS011;2321;42.704;23.384;2023-07-31T08:28:31;1249.83;;;999.90;;
4616;SDS011;2321;42.704;23.384;2023-07-31T08:30:59;1224.00;;;999.90;;
4616;SDS011;2321;42.704;23.384;2023-07-31T08:33:26;1252.77;;;999.90;;
4616;SDS011;2321;42.704;23.384;2023-07-31T08:35:53;1229.73;;;999.90;;
4616;SDS011;2321;42.704;23.384;2023-07-31T08:38:20;1257.53;;;999.90;;
4616;SDS011;2321;42.704;23.384;2023-07-31T08:40:50;1262.17;;;999.90;;
4616;SDS011;2321;42.704;23.384;2023-07-31T08:43:17;1297.97;;;999.90;;
4616;SDS011;2321;42.704;23.384;2023-07-31T08:45:46;1296.43;;;999.90;;
4616;SDS011;2321;42.704;23.384;2023-07-31T08:48:15;1244.00;;;999.90;;
4616;SDS011;2321;42.704;23.384;2023-07-31T08:50:43;1250.60;;;999.90;;
4616;SDS011;2321;42.704;23.384;2023-07-31T08:53:11;1284.93;;;999.90;;
4616;SDS011;2321;42.704;23.384;2023-07-31T08:55:38;1230.00;;;999.90;;
4616;SDS011;2321;42.704;23.384;2023-07-31T08:58:06;1257.73;;;999.90;;
4616;SDS011;2321;42.704;23.384;2023-07-31T09:00:34;1241.37;;;999.90;;
4616;SDS011;2321;42.704;23.384;2023-07-31T09:03:07;1239.43;;;999.90;;
4616;SDS011;2321;42.704;23.384;2023-07-31T09:05:37;1264.53;;;999.90;;
4616;SDS011;2321;42.704;23.384;2023-07-31T09:08:08;1239.80;;;999.90;;
4616;SDS011;2321;42.704;23.384;2023-07-31T09:10:37;1257.87;;;999.90;;
4616;SDS011;2321;42.704;23.384;2023-07-31T09:13:07;1239.83;;;999.90;;
4616;SDS011;2321;42.704;23.384;2023-07-31T09:15:35;1276.93;;;999.90;;
4616;SDS011;2321;42.704;23.384;2023-07-31T09:18:02;1278.30;;;999.90;;
4616;SDS011;2321;42.704;23.384;2023-07-31T09:20:30;1445.95;;;999.90;;
4616;SDS011;2321;42.704;23.384;2023-07-31T09:23:05;1320.27;;;999.90;;
4616;SDS011;2321;42.704;23.384;2023-07-31T09:25:33;1294.20;;;999.90;;
4616;SDS011;2321;42.704;23.384;2023-07-31T09:28:01;1228.23;;;999.90;;
4616;SDS011;2321;42.704;23.384;2023-07-31T09:30:29;1272.80;;;999.90;;
4616;SDS011;2321;42.704;23.384;2023-07-31T09:33:00;1322.13;;;999.90;;
4616;SDS011;2321;42.704;23.384;2023-07-31T09:35:29;1230.83;;;999.90;;
4616;SDS011;2321;42.704;23.384;2023-07-31T09:37:59;1252.87;;;999.90;;
4616;SDS011;2321;42.704;23.384;2023-07-31T09:40:29;1275.80;;;999.90;;
4616;SDS011;2321;42.704;23.384;2023-07-31T09:42:57;1223.57;;;999.90;;
4616;SDS011;2321;42.704;23.384;2023-07-31T09:45:25;1358.20;;;999.90;;
4616;SDS011;2321;42.704;23.384;2023-07-31T09:47:53;1306.83;;;999.90;;
4616;SDS011;2321;42.704;23.384;2023-07-31T09:50:20;29.17;;;21.90;;
4616;SDS011;2321;42.704;23.384;2023-07-31T09:52:48;1336.13;;;999.90;;
4616;SDS011;2321;42.704;23.384;2023-07-31T09:55:16;1225.63;;;999.90;;
4616;SDS011;2321;42.704;23.384;2023-07-31T09:57:45;1159.67;;;999.90;;
4616;SDS011;2321;42.704;23.384;2023-07-31T10:00:14;1356.70;;;999.90;;
4616;SDS011;2321;42.704;23.384;2023-07-31T10:02:43;1229.60;;;999.90;;
4616;SDS011;2321;42.704;23.384;2023-07-31T10:05:12;1241.90;;;999.90;;
4616;SDS011;2321;42.704;23.384;2023-07-31T10:07:41;4.60;;;2.33;;
4616;SDS011;2321;42.704;23.384;2023-07-31T10:10:09;1133.63;;;890.23;;
4616;SDS011;2321;42.704;23.384;2023-07-31T10:12:37;882.33;;;647.23;;
4616;SDS011;2321;42.704;23.384;2023-07-31T10:15:06;1263.73;;;999.90;;
4616;SDS011;2321;42.704;23.384;2023-07-31T10:17:38;1094.80;;;950.07;;
4616;SDS011;2321;42.704;23.384;2023-07-31T10:20:05;1038.37;;;925.10;;
4616;SDS011;2321;42.704;23.384;2023-07-31T10:22:33;1100.13;;;933.47;;
4616;SDS011;2321;42.704;23.384;2023-07-31T10:25:05;1385.53;;;956.70;;
4616;SDS011;2321;42.704;23.384;2023-07-31T10:27:34;1100.00;;;821.10;;
4616;SDS011;2321;42.704;23.384;2023-07-31T10:30:02;1082.10;;;962.90;;
4616;SDS011;2321;42.704;23.384;2023-07-31T10:32:32;1298.73;;;999.90;;
4616;SDS011;2321;42.704;23.384;2023-07-31T10:35:01;1472.17;;;999.90;;
4616;SDS011;2321;42.704;23.384;2023-07-31T10:37:36;1121.70;;;995.07;;
4616;SDS011;2321;42.704;23.384;2023-07-31T10:40:11;1.60;;;1.60;;
4616;SDS011;2321;42.704;23.384;2023-07-31T10:42:45;984.03;;;874.60;;
4616;SDS011;2321;42.704;23.384;2023-07-31T10:45:14;1.57;;;1.13;;
4616;SDS011;2321;42.704;23.384;2023-07-31T10:47:59;1116.60;;;999.40;;
4616;SDS011;2321;42.704;23.384;2023-07-31T10:50:27;1150.53;;;999.90;;
4616;SDS011;2321;42.704;23.384;2023-07-31T10:52:57;1253.20;;;999.90;;
4616;SDS011;2321;42.704;23.384;2023-07-31T10:55:26;1314.63;;;999.90;;
4616;SDS011;2321;42.704;23.384;2023-07-31T10:57:55;1127.87;;;999.90;;
4616;SDS011;2321;42.704;23.384;2023-07-31T11:00:25;1360.80;;;999.90;;
4616;SDS011;2321;42.704;23.384;2023-07-31T11:02:56;1275.03;;;999.90;;
4616;SDS011;2321;42.704;23.384;2023-07-31T11:05:48;1359.13;;;999.90;;
4616;SDS011;2321;42.704;23.384;2023-07-31T11:08:19;1362.50;;;999.90;;
4616;SDS011;2321;42.704;23.384;2023-07-31T11:10:47;1323.97;;;999.90;;
4616;SDS011;2321;42.704;23.384;2023-07-31T11:13:17;1406.47;;;999.90;;
4616;SDS011;2321;42.704;23.384;2023-07-31T11:15:44;466.43;;;378.53;;
4616;SDS011;2321;42.704;23.384;2023-07-31T11:18:13;1275.67;;;999.90;;
4616;SDS011;2321;42.704;23.384;2023-07-31T11:20:42;1248.97;;;999.90;;
4616;SDS011;2321;42.704;23.384;2023-07-31T11:23:09;1225.87;;;999.90;;
4616;SDS011;2321;42.704;23.384;2023-07-31T11:25:37;1174.90;;;999.90;;
4616;SDS011;2321;42.704;23.384;2023-07-31T11:28:07;1254.97;;;999.90;;
4616;SDS011;2321;42.704;23.384;2023-07-31T11:30:35;877.87;;;634.83;;
4616;SDS011;2321;42.704;23.384;2023-07-31T11:33:03;3.03;;;1.20;;
4616;SDS011;2321;42.704;23.384;2023-07-31T11:35:33;1131.53;;;987.20;;
4616;SDS011;2321;42.704;23.384;2023-07-31T11:38:01;1345.50;;;999.90;;
4616;SDS011;2321;42.704;23.384;2023-07-31T11:40:28;14.07;;;6.00;;
4616;SDS011;2321;42.704;23.384;2023-07-31T11:42:56;1318.47;;;999.90;;
4616;SDS011;2321;42.704;23.384;2023-07-31T11:45:24;1188.17;;;999.90;;
4616;SDS011;2321;42.704;23.384;2023-07-31T11:47:54;1159.60;;;999.90;;
4616;SDS011;2321;42.704;23.384;2023-07-31T11:50:22;1278.83;;;999.90;;
4616;SDS011;2321;42.704;23.384;2023-07-31T11:52:53;1208.10;;;968.53;;
4616;SDS011;2321;42.704;23.384;2023-07-31T11:55:24;1168.30;;;999.90;;
4616;SDS011;2321;42.704;23.384;2023-07-31T11:57:54;1174.50;;;999.90;;
4616;SDS011;2321;42.704;23.384;2023-07-31T12:00:24;1310.50;;;999.90;;
4616;SDS011;2321;42.704;23.384;2023-07-31T12:02:54;1369.80;;;999.90;;
4616;SDS011;2321;42.704;23.384;2023-07-31T12:05:24;12.60;;;4.00;;
4616;SDS011;2321;42.704;23.384;2023-07-31T12:07:54;1197.67;;;999.90;;
4616;SDS011;2321;42.704;23.384;2023-07-31T12:10:23;1311.90;;;999.90;;
4616;SDS011;2321;42.704;23.384;2023-07-31T12:13:01;964.77;;;878.60;;
4616;SDS011;2321;42.704;23.384;2023-07-31T12:15:35;1347.87;;;999.90;;
4616;SDS011;2321;42.704;23.384;2023-07-31T12:18:07;693.60;;;632.43;;
4616;SDS011;2321;42.704;23.384;2023-07-31T12:20:39;1057.30;;;953.57;;
4616;SDS011;2321;42.704;23.384;2023-07-31T12:23:16;895.53;;;814.23;;
4616;SDS011;2321;42.704;23.384;2023-07-31T12:25:59;1289.50;;;999.90;;
4616;SDS011;2321;42.704;23.384;2023-07-31T12:28:30;1331.27;;;999.90;;
4616;SDS011;2321;42.704;23.384;2023-07-31T12:31:00;1321.10;;;999.90;;
4616;SDS011;2321;42.704;23.384;2023-07-31T12:33:32;1381.80;;;999.90;;
4616;SDS011;2321;42.704;23.384;2023-07-31T12:36:00;1303.07;;;999.90;;
4616;SDS011;2321;42.704;23.384;2023-07-31T12:38:30;1370.93;;;999.90;;
4616;SDS011;2321;42.704;23.384;2023-07-31T12:40:57;1308.93;;;999.90;;
4616;SDS011;2321;42.704;23.384;2023-07-31T12:43:24;1337.57;;;999.90;;
4616;SDS011;2321;42.704;23.384;2023-07-31T12:45:51;1315.97;;;999.90;;
4616;SDS011;2321;42.704;23.384;2023-07-31T12:48:18;1353.20;;;999.90;;
4616;SDS011;2321;42.704;23.384;2023-07-31T12:50:45;1281.13;;;999.90;;
4616;SDS011;2321;42.704;23.384;2023-07-31T12:53:12;1273.73;;;999.90;;
4616;SDS011;2321;42.704;23.384;2023-07-31T12:55:40;1288.43;;;999.90;;
4616;SDS011;2321;42.704;23.384;2023-07-31T12:58:07;1342.40;;;999.90;;
4616;SDS011;2321;42.704;23.384;2023-07-31T13:00:34;1204.73;;;999.90;;
4616;SDS011;2321;42.704;23.384;2023-07-31T13:03:01;1241.17;;;999.90;;
4616;SDS011;2321;42.704;23.384;2023-07-31T13:05:28;1306.00;;;999.90;;
4616;SDS011;2321;42.704;23.384;2023-07-31T13:07:58;1229.90;;;999.90;;
4616;SDS011;2321;42.704;23.384;2023-07-31T13:10:25;1242.43;;;999.90;;
4616;SDS011;2321;42.704;23.384;2023-07-31T13:12:55;1248.53;;;999.90;;
4616;SDS011;2321;42.704;23.384;2023-07-31T13:15:22;1276.00;;;999.90;;
4616;SDS011;2321;42.704;23.384;2023-07-31T13:17:49;1280.90;;;999.90;;
4616;SDS011;2321;42.704;23.384;2023-07-31T13:20:16;1357.17;;;999.90;;
4616;SDS011;2321;42.704;23.384;2023-07-31T13:22:43;1336.27;;;999.90;;
4616;SDS011;2321;42.704;23.384;2023-07-31T13:25:09;1282.17;;;999.90;;
4616;SDS011;2321;42.704;23.384;2023-07-31T13:27:36;1324.83;;;999.90;;
4616;SDS011;2321;42.704;23.384;2023-07-31T13:30:05;1336.10;;;999.90;;
4616;SDS011;2321;42.704;23.384;2023-07-31T13:32:33;1324.93;;;999.90;;
4616;SDS011;2321;42.704;23.384;2023-07-31T13:35:03;1262.93;;;999.90;;
4616;SDS011;2321;42.704;23.384;2023-07-31T13:37:33;1309.87;;;999.90;;
4616;SDS011;2321;42.704;23.384;2023-07-31T13:40:00;1320.17;;;999.90;;
4616;SDS011;2321;42.704;23.384;2023-07-31T13:42:29;1332.07;;;999.90;;
4616;SDS011;2321;42.704;23.384;2023-07-31T13:44:56;1275.33;;;999.90;;
4616;SDS011;2321;42.704;23.384;2023-07-31T13:47:24;1289.27;;;999.90;;
4616;SDS011;2321;42.704;23.384;2023-07-31T13:49:51;1319.73;;;999.90;;
4616;SDS011;2321;42.704;23.384;2023-07-31T13:52:18;1299.47;;;999.90;;
4616;SDS011;2321;42.704;23.384;2023-07-31T13:54:45;1371.43;;;999.90;;
4616;SDS011;2321;42.704;23.384;2023-07-31T13:57:13;1272.00;;;999.90;;
4616;SDS011;2321;42.704;23.384;2023-07-31T13:59:42;1277.63;;;999.90;;
4616;SDS011;2321;42.704;23.384;2023-07-31T14:02:09;1288.70;;;999.90;;
4616;SDS011;2321;42.704;23.384;2023-07-31T14:04:37;1353.80;;;999.90;;
4616;SDS011;2321;42.704;23.384;2023-07-31T14:07:04;1338.10;;;999.90;;
4616;SDS011;2321;42.704;23.384;2023-07-31T14:09:31;1275.50;;;999.90;;
4616;SDS011;2321;42.704;23.384;2023-07-31T14:11:58;1277.00;;;999.90;;
4616;SDS011;2321;42.704;23.384;2023-07-31T14:14:25;1310.87;;;999.90;;
4616;SDS011;2321;42.704;23.384;2023-07-31T14:16:52;1256.17;;;999.90;;
4616;SDS011;2321;42.704;23.384;2023-07-31T14:19:19;1263.67;;;999.90;;
4616;SDS011;2321;42.704;23.384;2023-07-31T14:21:47;1319.90;;;999.90;;